Terminal Aerodrome Forecast
Issued by NWS

Home | Current Version | Previous Version | Text Only | Print | Product List | Glossary On
Versions: 1 2 3 4 5 6 7 8 9 10 11 12 13 14 15 16 17 18 19 20
000
FTUS41 KPBZ 200527
TAFLBE
TAF
KLBE 200527Z 2006/2106 00000KT 3SM BR SKC
     FM200800 00000KT 1SM BR SCT003
      TEMPO 2009/2012 3/4SM BR VV003
     FM201300 00000KT 3SM BR SKC
     FM201400 VRB03KT P6SM SKC=

USA.gov is the U.S. government's official web portal to all federal, state and local government web resources and services.